Time;durP1;ratioP1;P1;durP2;ratioP2;P2;SDS_P1;SDS_P2;PMS_P1;PMS_P2;Temp;Humidity;BMP_temperature;BMP_pressure;BME280_temperature;BME280_humidity;BME280_pressure;Samples;Min_cycle;Max_cycle;Signal;HPM_P1;HPM_P2
2023/03/08 00:01:28;;;;;;;11.98;7.18;;;;;;;5.63;66.38;96739.38;4184118;28;20548;-82
2023/03/08 00:03:31;;;;;;;10.77;6.25;;;;;;;5.61;66.42;96737.88;4185772;28;20213;-83
2023/03/08 00:05:37;;;;;;;9.27;6.70;;;;;;;5.58;66.02;96732.91;4190108;28;20198;-82
2023/03/08 00:07:42;;;;;;;10.73;6.72;;;;;;;5.59;65.88;96738.91;4183549;28;20491;-83
2023/03/08 00:09:45;;;;;;;10.65;7.28;;;;;;;5.58;66.44;96745.00;4181060;28;20198;-83
2023/03/08 00:11:48;;;;;;;10.63;7.00;;;;;;;5.55;66.08;96738.28;4186993;28;21182;-83
2023/03/08 00:13:55;;;;;;;10.77;7.35;;;;;;;5.56;66.71;96744.28;4188337;28;20209;-83
2023/03/08 00:15:59;;;;;;;12.50;7.45;;;;;;;5.55;66.63;96740.88;4197047;28;20227;-82
2023/03/08 00:18:05;;;;;;;10.45;7.38;;;;;;;5.59;66.82;96737.13;4188816;28;20239;-82
2023/03/08 00:20:11;;;;;;;11.23;7.38;;;;;;;5.57;66.69;96731.25;4188893;28;20305;-82
2023/03/08 00:22:14;;;;;;;10.25;6.30;;;;;;;5.59;66.72;96733.72;4186150;28;20208;-82
2023/03/08 00:24:18;;;;;;;11.05;7.25;;;;;;;5.61;66.19;96737.88;4187621;28;20198;-82
2023/03/08 00:26:21;;;;;;;11.07;7.25;;;;;;;5.62;66.52;96739.50;4186945;28;20301;-83
2023/03/08 00:28:25;;;;;;;14.25;7.63;;;;;;;5.62;66.51;96736.91;4185379;28;20225;-83
2023/03/08 00:30:28;;;;;;;10.38;6.90;;;;;;;5.62;66.91;96736.91;4182686;28;20746;-82
2023/03/08 00:32:31;;;;;;;11.07;7.30;;;;;;;5.66;66.50;96741.75;4197564;28;20300;-82
2023/03/08 00:34:35;;;;;;;9.95;6.75;;;;;;;5.62;66.52;96734.31;4182049;28;20235;-83
2023/03/08 00:36:38;;;;;;;10.95;7.28;;;;;;;5.64;66.52;96733.28;4191052;28;20590;-83
2023/03/08 00:38:41;;;;;;;10.50;7.20;;;;;;;5.65;66.95;96739.28;4184253;28;20260;-83
2023/03/08 00:40:45;;;;;;;10.10;7.63;;;;;;;5.63;66.32;96739.38;4215185;28;20204;-82
2023/03/08 00:42:48;;;;;;;10.93;7.10;;;;;;;5.67;66.24;96742.59;4218450;28;20206;-84
2023/03/08 00:44:52;;;;;;;9.82;7.20;;;;;;;5.67;66.41;96738.25;4183633;28;20571;-84
2023/03/08 00:46:55;;;;;;;8.68;6.97;;;;;;;5.66;66.53;96746.94;4186998;28;20749;-84
2023/03/08 00:48:58;;;;;;;9.88;7.25;;;;;;;5.67;66.91;96756.34;4196812;28;20281;-84
2023/03/08 00:51:04;;;;;;;12.52;7.80;;;;;;;5.68;66.61;96752.00;4178471;28;20766;-84
2023/03/08 00:53:08;;;;;;;10.60;7.80;;;;;;;5.71;66.97;96751.78;4177055;28;20301;-84
2023/03/08 00:55:11;;;;;;;14.88;8.65;;;;;;;5.71;67.37;96751.78;4184103;28;20321;-82
2023/03/08 00:57:16;;;;;;;10.85;7.50;;;;;;;5.71;66.98;96739.69;4185877;28;20666;-83
2023/03/08 00:59:22;;;;;;;12.15;7.78;;;;;;;5.69;67.12;96730.38;4213293;28;20566;-84
2023/03/08 01:01:25;;;;;;;12.50;7.90;;;;;;;5.64;66.55;96722.13;4188036;28;20232;-83
2023/03/08 01:03:28;;;;;;;13.15;7.55;;;;;;;5.66;67.16;96722.84;4187643;28;20246;-83
2023/03/08 01:05:31;;;;;;;13.00;8.32;;;;;;;5.73;66.94;96721.47;4182403;28;20338;-84
2023/03/08 01:07:34;;;;;;;9.85;7.40;;;;;;;5.81;66.60;96720.00;4189735;28;20260;-82
2023/03/08 01:09:37;;;;;;;13.57;8.27;;;;;;;5.83;65.92;96707.81;4216670;28;20201;-84
2023/03/08 01:11:44;;;;;;;11.23;7.18;;;;;;;5.86;66.60;96715.31;4189377;28;20297;-84
2023/03/08 01:13:53;;;;;;;12.60;7.85;;;;;;;5.92;66.55;96712.31;4183366;28;20579;-83
2023/03/08 01:15:56;;;;;;;12.10;8.32;;;;;;;5.95;66.43;96706.09;4187017;28;20314;-83
2023/03/08 01:17:59;;;;;;;15.38;8.85;;;;;;;5.86;66.09;96699.00;4187812;28;20283;-83
2023/03/08 01:20:06;;;;;;;14.15;7.82;;;;;;;5.85;66.78;96699.91;4179789;28;20297;-84
2023/03/08 01:22:09;;;;;;;12.73;8.05;;;;;;;5.82;66.62;96684.66;4192998;28;20261;-83
2023/03/08 01:24:16;;;;;;;12.27;7.47;;;;;;;5.77;66.50;96687.56;4202102;28;20307;-83
2023/03/08 01:26:21;;;;;;;14.15;8.40;;;;;;;5.72;67.35;96681.03;4204727;28;20183;-83
2023/03/08 01:28:25;;;;;;;17.77;9.23;;;;;;;5.67;67.67;96680.53;4186390;28;20208;-83
2023/03/08 01:30:29;;;;;;;12.38;8.05;;;;;;;5.60;67.24;96680.13;4169482;28;20300;-84
2023/03/08 01:32:32;;;;;;;12.70;8.32;;;;;;;5.63;67.73;96686.88;4185443;28;20735;-83
2023/03/08 01:34:39;;;;;;;13.50;9.23;;;;;;;5.60;67.86;96687.06;4193129;28;20314;-83
2023/03/08 01:36:42;;;;;;;12.20;8.30;;;;;;;5.54;66.99;96676.34;4171470;28;20212;-83
2023/03/08 01:38:49;;;;;;;12.27;8.05;;;;;;;5.52;67.77;96668.72;4203480;28;20237;-83
2023/03/08 01:40:57;;;;;;;12.38;8.10;;;;;;;5.47;67.18;96673.34;4199413;28;20780;-83
2023/03/08 01:43:11;;;;;;;12.77;8.80;;;;;;;5.40;68.03;96679.91;4174192;28;20206;-83
2023/03/08 01:45:52;;;;;;;14.90;9.30;;;;;;;5.41;68.20;96671.25;4188680;28;20285;-83
2023/03/08 01:47:57;;;;;;;13.20;8.48;;;;;;;5.47;67.81;96673.34;4198550;28;20206;-83
2023/03/08 01:50:20;;;;;;;13.57;8.98;;;;;;;5.54;68.09;96673.78;4188742;28;20215;-83
2023/03/08 01:52:25;;;;;;;14.10;8.63;;;;;;;5.59;67.88;96676.84;4186436;28;20202;-83
2023/03/08 01:54:31;;;;;;;13.57;8.10;;;;;;;5.58;67.40;96668.28;4187951;28;20206;-83
2023/03/08 01:56:35;;;;;;;13.65;8.30;;;;;;;5.61;68.01;96668.88;4171540;28;20253;-83
2023/03/08 01:58:40;;;;;;;12.48;8.60;;;;;;;5.69;68.37;96663.16;4175352;28;20695;-83
2023/03/08 02:00:43;;;;;;;12.43;8.82;;;;;;;5.74;67.63;96661.94;4217950;28;20225;-83
2023/03/08 02:05:24;;;;;;;14.10;8.85;;;;;;;5.78;68.01;96665.09;4082149;28;20367;-83
2023/03/08 02:07:32;;;;;;;12.98;8.55;;;;;;;5.78;68.02;96663.34;4096151;28;20273;-83
2023/03/08 02:09:36;;;;;;;14.38;9.20;;;;;;;5.76;67.79;96667.81;4109060;28;20736;-83
2023/03/08 02:11:40;;;;;;;13.98;8.45;;;;;;;5.71;67.96;96661.28;4078530;29;20211;-83
2023/03/08 02:13:44;;;;;;;13.30;9.13;;;;;;;5.70;68.08;96655.28;4092345;28;20236;-83
2023/03/08 02:15:49;;;;;;;12.68;8.68;;;;;;;5.70;68.00;96654.47;4101303;28;20658;-83
2023/03/08 02:17:54;;;;;;;14.30;9.20;;;;;;;5.68;68.14;96658.91;4089669;28;20211;-83
2023/03/08 02:20:00;;;;;;;14.38;8.77;;;;;;;5.65;68.11;96656.53;4094915;28;20280;-83
2023/03/08 02:22:09;;;;;;;13.40;8.88;;;;;;;5.62;68.06;96660.19;4098937;28;20210;-83
2023/03/08 02:24:22;;;;;;;13.48;9.13;;;;;;;5.60;68.20;96657.81;4094733;28;20207;-83
2023/03/08 02:26:25;;;;;;;13.75;9.30;;;;;;;5.62;68.68;96649.00;4093107;28;20819;-83
2023/03/08 02:28:28;;;;;;;13.40;8.90;;;;;;;5.58;68.27;96652.75;4075242;28;20774;-83
2023/03/08 02:30:35;;;;;;;15.68;8.65;;;;;;;5.58;68.58;96644.16;4093896;28;20217;-83
2023/03/08 02:32:38;;;;;;;12.23;8.98;;;;;;;5.55;68.02;96650.41;4093071;28;20311;-83
2023/03/08 02:34:41;;;;;;;13.57;9.55;;;;;;;5.50;67.71;96633.56;4096567;28;20619;-83
2023/03/08 02:36:44;;;;;;;12.55;9.70;;;;;;;5.49;68.80;96627.56;4095592;28;20243;-83
2023/03/08 02:38:47;;;;;;;13.32;9.15;;;;;;;5.49;68.55;96624.13;4105071;28;20629;-83
2023/03/08 02:40:52;;;;;;;12.82;9.10;;;;;;;5.46;67.85;96622.63;4092741;28;20254;-83
2023/03/08 02:42:55;;;;;;;14.55;9.27;;;;;;;5.50;68.03;96616.28;4105787;28;20265;-83
2023/03/08 02:44:58;;;;;;;15.05;9.85;;;;;;;5.48;67.98;96612.16;4096454;28;20293;-83
2023/03/08 02:47:01;;;;;;;17.20;11.02;;;;;;;5.40;68.09;96615.31;4105324;28;20632;-83
2023/03/08 02:49:04;;;;;;;14.93;9.35;;;;;;;5.34;68.94;96610.56;4090903;28;20213;-83
2023/03/08 02:51:07;;;;;;;14.43;8.80;;;;;;;5.25;68.30;96610.41;4076960;29;20221;-83
2023/03/08 02:53:11;;;;;;;14.50;9.27;;;;;;;5.22;68.91;96606.28;4097236;28;20215;-83
2023/03/08 02:55:14;;;;;;;15.23;9.20;;;;;;;5.20;69.44;96613.31;4091861;28;20213;-83
2023/03/08 02:57:18;;;;;;;15.30;9.70;;;;;;;5.26;68.94;96610.31;4102963;28;20310;-83
2023/03/08 02:59:21;;;;;;;12.43;8.52;;;;;;;5.31;68.54;96609.97;4074143;29;20234;-83
2023/03/08 03:01:27;;;;;;;13.27;8.93;;;;;;;5.34;68.08;96605.41;4102633;28;20344;-83
2023/03/08 03:03:30;;;;;;;12.65;8.82;;;;;;;5.39;68.46;96618.00;4081278;28;20243;-83
2023/03/08 03:05:33;;;;;;;13.07;8.73;;;;;;;5.42;69.05;96605.66;4110536;28;20206;-83
2023/03/08 03:07:42;;;;;;;12.82;9.35;;;;;;;5.46;68.43;96594.19;4105561;28;20242;-83
2023/03/08 03:09:51;;;;;;;13.85;9.45;;;;;;;5.52;67.82;96603.25;4091439;28;20208;-83
2023/03/08 03:11:54;;;;;;;13.13;8.60;;;;;;;5.56;67.90;96605.50;4109942;28;20208;-83
2023/03/08 03:14:00;;;;;;;12.57;9.43;;;;;;;5.60;67.83;96606.13;4109645;28;20201;-83
2023/03/08 03:16:10;;;;;;;11.85;8.77;;;;;;;5.62;67.99;96597.28;4121453;28;20225;-83
2023/03/08 03:18:13;;;;;;;14.50;9.98;;;;;;;5.59;67.25;96589.75;4108667;28;20260;-83
2023/03/08 03:20:17;;;;;;;13.25;9.00;;;;;;;5.58;67.81;96582.13;4103094;28;20807;-83
2023/03/08 03:22:20;;;;;;;13.18;8.65;;;;;;;5.62;67.57;96584.38;4112437;28;20240;-83
2023/03/08 03:24:23;;;;;;;14.68;9.02;;;;;;;5.62;68.09;96589.53;4105560;28;20264;-83
2023/03/08 03:26:30;;;;;;;11.05;8.60;;;;;;;5.65;67.41;96589.31;4096852;28;20299;-83
2023/03/08 03:28:33;;;;;;;12.05;8.30;;;;;;;5.66;67.06;96580.63;4122816;28;20214;-83
2023/03/08 03:30:39;;;;;;;14.32;9.57;;;;;;;5.68;67.41;96571.00;4124514;28;20270;-83
2023/03/08 03:32:46;;;;;;;14.50;8.35;;;;;;;5.69;67.34;96563.13;4123975;28;20328;-83
2023/03/08 03:34:53;;;;;;;12.35;9.20;;;;;;;5.73;67.30;96559.38;4114791;28;20620;-83
2023/03/08 03:36:57;;;;;;;14.98;9.30;;;;;;;5.76;67.51;96563.56;4120623;28;20291;-83
2023/03/08 03:39:00;;;;;;;13.80;9.18;;;;;;;5.76;67.80;96555.78;4129634;28;20717;-83
2023/03/08 03:41:07;;;;;;;13.07;8.85;;;;;;;5.74;67.44;96558.50;4117902;28;20222;-84
2023/03/08 03:43:11;;;;;;;13.07;8.13;;;;;;;5.76;67.52;96560.97;4105601;28;20207;-83
2023/03/08 03:45:14;;;;;;;12.93;8.85;;;;;;;5.75;67.61;96554.94;4105747;28;20210;-83
2023/03/08 03:47:18;;;;;;;14.55;9.50;;;;;;;5.74;68.07;96536.97;4106771;28;20208;-83
2023/03/08 03:49:23;;;;;;;14.23;8.80;;;;;;;5.72;68.23;96544.78;4117619;28;20221;-83
2023/03/08 03:51:27;;;;;;;14.48;9.40;;;;;;;5.65;68.04;96533.28;4121531;28;20200;-83
2023/03/08 03:53:41;;;;;;;12.50;8.50;;;;;;;5.61;68.07;96536.19;4119929;28;20295;-84
2023/03/08 03:55:45;;;;;;;15.38;8.57;;;;;;;5.55;69.02;96531.47;4111239;28;20304;-83
2023/03/08 03:57:48;;;;;;;13.20;9.02;;;;;;;5.54;68.92;96531.59;4107152;28;20239;-83
2023/03/08 03:59:52;;;;;;;10.60;7.57;;;;;;;5.54;68.02;96526.41;4109806;28;20217;-83
2023/03/08 04:01:57;;;;;;;13.00;8.65;;;;;;;5.52;68.84;96528.28;4090784;28;20693;-83
2023/03/08 04:04:10;;;;;;;12.88;7.90;;;;;;;5.50;68.92;96530.97;4121864;28;20320;-83
2023/03/08 04:06:19;;;;;;;11.05;8.60;;;;;;;5.52;68.99;96523.09;4106516;28;20251;-83
2023/03/08 04:08:25;;;;;;;14.60;8.80;;;;;;;5.55;68.75;96518.56;4122486;28;20667;-83
2023/03/08 04:10:28;;;;;;;12.65;8.50;;;;;;;5.54;68.02;96518.66;4111033;28;20216;-83
2023/03/08 04:12:32;;;;;;;13.85;8.40;;;;;;;5.55;68.57;96517.72;4106959;28;20219;-83
2023/03/08 04:14:35;;;;;;;13.43;8.95;;;;;;;5.53;68.22;96523.00;4119740;28;20217;-84
2023/03/08 04:16:40;;;;;;;14.13;8.63;;;;;;;5.54;68.08;96516.91;4119251;28;20220;-83
2023/03/08 04:18:53;;;;;;;12.88;8.30;;;;;;;5.58;68.74;96515.75;4117579;28;20218;-84
2023/03/08 04:20:57;;;;;;;13.82;8.45;;;;;;;5.60;68.72;96500.13;4139049;28;20240;-83
2023/03/08 04:23:01;;;;;;;10.02;7.30;;;;;;;5.62;69.06;96506.81;4133083;28;20209;-83
2023/03/08 04:25:10;;;;;;;13.77;8.45;;;;;;;5.63;68.66;96508.47;4123702;28;20287;-83
2023/03/08 04:27:20;;;;;;;11.05;7.38;;;;;;;5.62;68.58;96502.47;4119917;28;20225;-83
2023/03/08 04:29:23;;;;;;;10.73;7.50;;;;;;;5.60;68.11;96486.22;4121524;28;20739;-83
2023/03/08 04:31:27;;;;;;;12.13;8.40;;;;;;;5.58;67.92;96479.56;4134369;28;20201;-81
2023/03/08 04:33:33;;;;;;;12.60;8.40;;;;;;;5.57;68.75;96479.66;4138361;28;20268;-82
2023/03/08 04:35:36;;;;;;;12.15;8.75;;;;;;;5.54;68.52;96480.72;4127903;28;20209;-82
2023/03/08 04:37:44;;;;;;;12.80;8.27;;;;;;;5.55;68.83;96489.28;4104769;28;20715;-82
2023/03/08 04:39:48;;;;;;;12.63;8.40;;;;;;;5.53;69.20;96491.97;4122304;28;20224;-82
2023/03/08 04:41:52;;;;;;;11.93;8.40;;;;;;;5.51;68.83;96499.03;4124786;28;20755;-82
2023/03/08 04:44:02;;;;;;;11.85;8.52;;;;;;;5.51;68.38;96493.84;4126914;28;20589;-82
2023/03/08 04:46:21;;;;;;;13.15;8.50;;;;;;;5.54;68.40;96498.81;4108271;28;20276;-82
2023/03/08 04:48:24;;;;;;;12.80;8.73;;;;;;;5.57;68.76;96497.75;4123092;28;20264;-82
2023/03/08 04:50:28;;;;;;;14.75;9.30;;;;;;;5.60;68.37;96495.75;4123040;28;20243;-82
2023/03/08 04:52:32;;;;;;;18.15;8.80;;;;;;;5.64;67.26;96499.78;4106899;28;20278;-82
2023/03/08 04:54:37;;;;;;;11.27;8.48;;;;;;;5.67;67.49;96490.03;4122566;28;20681;-82
2023/03/08 04:56:49;;;;;;;10.77;7.75;;;;;;;5.66;67.74;96490.94;4106391;28;20212;-81
2023/03/08 04:58:53;;;;;;;13.40;8.00;;;;;;;5.67;68.12;96487.44;4119375;28;20271;-82
2023/03/08 05:00:58;;;;;;;11.90;8.50;;;;;;;5.68;68.53;96488.25;4111526;28;20578;-82
2023/03/08 05:03:01;;;;;;;13.13;8.45;;;;;;;5.62;68.97;96470.59;4126983;28;20235;-82
2023/03/08 05:05:05;;;;;;;11.80;8.48;;;;;;;5.55;67.95;96463.41;4127546;28;20268;-81
2023/03/08 05:07:08;;;;;;;13.75;8.75;;;;;;;5.58;68.07;96458.88;4127283;28;20300;-82
2023/03/08 05:09:12;;;;;;;14.65;9.00;;;;;;;5.60;68.25;96467.31;4130772;28;20245;-82
2023/03/08 05:11:20;;;;;;;15.23;8.35;;;;;;;5.60;69.69;96462.97;4127257;28;20229;-82
2023/03/08 05:13:24;;;;;;;14.32;9.02;;;;;;;5.58;69.65;96448.53;4132665;28;20208;-81
2023/03/08 05:15:27;;;;;;;13.60;8.27;;;;;;;5.57;69.42;96441.69;4141004;28;20729;-82
2023/03/08 05:17:30;;;;;;;12.30;7.88;;;;;;;5.57;68.38;96441.69;4129639;28;21000;-82
2023/03/08 05:19:33;;;;;;;12.55;8.70;;;;;;;5.60;68.68;96440.66;4112228;28;20329;-82
2023/03/08 05:21:36;;;;;;;19.17;9.48;;;;;;;5.61;69.80;96448.31;4123353;28;20202;-82
2023/03/08 05:23:40;;;;;;;14.07;9.48;;;;;;;5.58;69.84;96443.34;4144471;28;20235;-82
2023/03/08 05:25:44;;;;;;;13.38;8.57;;;;;;;5.60;69.36;96445.81;4141588;28;20239;-82
2023/03/08 05:27:49;;;;;;;14.02;9.85;;;;;;;5.63;69.95;96439.47;4126581;28;20655;-82
2023/03/08 05:29:56;;;;;;;13.00;8.55;;;;;;;5.65;70.35;96445.38;4132887;28;20207;-82
2023/03/08 05:32:01;;;;;;;15.02;9.18;;;;;;;5.67;70.47;96447.84;4117566;28;20209;-82
2023/03/08 05:34:05;;;;;;;12.00;8.80;;;;;;;5.69;70.93;96440.78;4121049;28;20771;-82
2023/03/08 05:36:12;;;;;;;14.95;8.90;;;;;;;5.69;69.93;96438.19;4136894;28;20204;-82
2023/03/08 05:38:17;;;;;;;12.80;9.30;;;;;;;5.71;70.19;96438.88;4141071;28;20695;-82
2023/03/08 05:40:20;;;;;;;12.60;9.02;;;;;;;5.74;69.67;96439.53;4102317;28;20322;-82
2023/03/08 05:42:26;;;;;;;15.48;9.13;;;;;;;5.77;70.24;96444.47;4117532;28;20208;-82
2023/03/08 05:44:31;;;;;;;13.95;8.82;;;;;;;5.82;69.98;96449.31;4124996;28;20235;-80
2023/03/08 05:46:36;;;;;;;14.55;8.50;;;;;;;5.86;69.66;96442.94;4137566;28;20214;-81
2023/03/08 05:48:41;;;;;;;12.65;8.27;;;;;;;5.88;69.73;96435.88;4103041;28;20213;-80
2023/03/08 05:50:44;;;;;;;15.32;8.90;;;;;;;5.92;69.25;96432.94;4128833;28;20660;-80
2023/03/08 05:52:49;;;;;;;12.82;9.50;;;;;;;5.95;69.08;96437.06;4132462;28;20214;-81
2023/03/08 05:54:57;;;;;;;11.25;8.52;;;;;;;5.96;69.20;96434.34;4127937;28;20852;-80
2023/03/08 05:57:00;;;;;;;13.35;9.32;;;;;;;5.89;69.48;96430.59;4111110;28;20208;-80
2023/03/08 05:59:04;;;;;;;16.85;11.02;;;;;;;5.86;69.44;96428.22;4128272;28;20231;-81
2023/03/08 06:01:13;;;;;;;15.80;9.90;;;;;;;5.82;69.73;96426.03;4106026;28;20242;-80
2023/03/08 06:03:16;;;;;;;16.67;10.95;;;;;;;5.80;70.17;96418.38;4110752;28;20243;-80
2023/03/08 06:05:20;;;;;;;15.32;10.07;;;;;;;5.80;70.77;96422.72;4107199;28;20224;-80
2023/03/08 06:07:26;;;;;;;13.93;9.02;;;;;;;5.82;72.06;96428.59;4112883;28;20242;-80
2023/03/08 06:09:39;;;;;;;17.35;9.60;;;;;;;5.79;71.61;96427.06;4141134;28;20213;-80
2023/03/08 06:11:46;;;;;;;14.25;9.73;;;;;;;5.81;71.61;96427.75;4142259;28;20208;-80
2023/03/08 06:13:49;;;;;;;14.50;9.60;;;;;;;5.80;71.73;96427.88;4124823;28;20204;-81
2023/03/08 06:15:55;;;;;;;14.77;10.07;;;;;;;5.78;71.46;96425.41;4136214;28;20671;-80
2023/03/08 06:18:00;;;;;;;14.18;10.23;;;;;;;5.81;71.21;96425.19;4123276;28;20214;-80
2023/03/08 06:20:05;;;;;;;14.45;10.13;;;;;;;5.83;71.20;96423.31;4127692;28;21143;-80
2023/03/08 06:22:11;;;;;;;15.30;10.23;;;;;;;5.83;71.06;96415.56;4122036;28;20215;-80
2023/03/08 06:24:15;;;;;;;19.92;9.75;;;;;;;5.84;71.42;96416.38;4126749;28;20220;-79
2023/03/08 06:26:18;;;;;;;14.35;9.75;;;;;;;5.84;71.36;96418.97;4141772;28;20308;-81
2023/03/08 06:28:22;;;;;;;15.88;9.85;;;;;;;5.84;71.27;96412.00;4149769;28;20203;-80
2023/03/08 06:30:25;;;;;;;26.67;12.02;;;;;;;5.86;72.00;96406.72;4127931;28;20210;-80
2023/03/08 06:32:29;;;;;;;18.17;12.35;;;;;;;5.86;72.44;96412.72;4126502;28;20309;-80
2023/03/08 06:34:33;;;;;;;17.80;10.90;;;;;;;5.88;73.00;96404.84;4122399;28;20305;-80
2023/03/08 06:36:37;;;;;;;20.70;11.30;;;;;;;5.88;72.84;96399.66;4110726;28;20218;-80
2023/03/08 06:38:41;;;;;;;24.23;15.07;;;;;;;5.88;72.37;96404.84;4130410;28;20595;-82
2023/03/08 06:40:44;;;;;;;19.95;12.88;;;;;;;5.88;72.23;96400.50;4109877;28;20915;-80
2023/03/08 06:42:47;;;;;;;18.98;12.75;;;;;;;5.89;72.61;96411.66;4121645;28;20215;-81
2023/03/08 06:44:51;;;;;;;17.58;11.35;;;;;;;5.92;72.27;96412.25;4145315;28;20209;-81
2023/03/08 06:46:54;;;;;;;18.88;10.32;;;;;;;5.95;72.56;96401.66;4127265;28;20254;-81
2023/03/08 06:49:00;;;;;;;14.18;10.45;;;;;;;5.99;72.20;96404.84;4113293;28;20203;-82
2023/03/08 06:51:06;;;;;;;17.17;10.32;;;;;;;6.03;71.31;96401.06;4137439;28;20644;-82
2023/03/08 06:53:09;;;;;;;14.10;9.70;;;;;;;5.93;72.87;96398.38;4144094;28;20315;-80
2023/03/08 06:55:29;;;;;;;13.25;9.35;;;;;;;5.97;73.72;96393.78;4125457;28;20222;-80
2023/03/08 06:57:32;;;;;;;15.23;9.95;;;;;;;6.01;73.64;96387.44;4138242;28;20218;-81
2023/03/08 06:59:35;;;;;;;18.40;11.30;;;;;;;6.01;74.54;96379.69;4122132;28;20614;-81
2023/03/08 07:01:38;;;;;;;14.57;10.07;;;;;;;6.04;74.58;96375.06;4125413;28;20319;-81
2023/03/08 07:03:44;;;;;;;14.95;10.10;;;;;;;6.07;73.92;96369.66;4123770;28;20224;-79
2023/03/08 07:05:47;;;;;;;16.80;10.70;;;;;;;6.07;73.86;96367.06;4128701;28;20207;-79
2023/03/08 07:07:51;;;;;;;15.65;11.20;;;;;;;6.09;73.70;96365.22;4126878;28;20304;-79
2023/03/08 07:09:55;;;;;;;15.98;10.10;;;;;;;6.08;74.80;96359.19;4120093;28;20204;-79
2023/03/08 07:11:58;;;;;;;15.52;9.98;;;;;;;6.10;75.27;96359.06;4140611;28;20202;-80
2023/03/08 07:14:01;;;;;;;16.58;10.30;;;;;;;6.12;74.92;96337.31;4135584;28;20556;-79
2023/03/08 07:16:07;;;;;;;13.82;9.40;;;;;;;6.14;75.47;96337.19;4121102;28;20218;-79
2023/03/08 07:18:11;;;;;;;15.57;10.60;;;;;;;6.09;75.79;96324.63;4113882;28;20596;-80
2023/03/08 07:20:18;;;;;;;15.93;10.57;;;;;;;6.10;76.72;96322.84;4122721;28;20228;-79
2023/03/08 07:22:21;;;;;;;20.30;10.88;;;;;;;6.07;76.82;96327.47;4119468;28;20552;-79
2023/03/08 07:24:25;;;;;;;17.05;10.95;;;;;;;6.08;77.22;96335.91;4117999;28;20266;-79
2023/03/08 07:26:28;;;;;;;15.20;11.10;;;;;;;6.08;78.01;96341.09;4128891;28;20233;-77
2023/03/08 07:28:31;;;;;;;16.92;10.75;;;;;;;6.08;77.94;96351.44;4130968;28;20862;-78
2023/03/08 07:30:34;;;;;;;17.77;10.77;;;;;;;6.08;78.57;96355.78;4126484;28;20238;-80
2023/03/08 07:32:39;;;;;;;18.50;11.23;;;;;;;6.08;78.46;96355.78;4136564;28;20263;-80
2023/03/08 07:34:42;;;;;;;15.60;11.00;;;;;;;6.07;79.02;96350.75;4109747;28;20213;-80
2023/03/08 07:36:46;;;;;;;13.98;10.02;;;;;;;6.06;79.30;96354.25;4119080;28;20746;-80
2023/03/08 07:38:49;;;;;;;17.08;10.25;;;;;;;6.08;78.88;96343.66;4121659;28;20207;-80
2023/03/08 07:40:55;;;;;;;15.43;11.20;;;;;;;6.11;79.37;96350.38;4123366;28;20599;-79
2023/03/08 07:42:59;;;;;;;15.55;10.50;;;;;;;6.11;79.57;96351.19;4143359;28;20207;-80
2023/03/08 07:45:23;;;;;;;16.55;10.50;;;;;;;6.08;80.12;96344.63;4116239;28;20699;-80
2023/03/08 07:47:26;;;;;;;14.23;10.95;;;;;;;6.08;81.32;96341.09;4106553;28;20211;-79
2023/03/08 07:49:29;;;;;;;15.85;10.85;;;;;;;6.05;79.92;96331.94;4121508;28;20210;-79
2023/03/08 07:51:32;;;;;;;15.32;11.07;;;;;;;6.00;80.00;96342.66;4124477;28;20766;-80
2023/03/08 07:53:36;;;;;;;15.90;11.68;;;;;;;5.96;80.20;96336.06;4125383;28;20215;-79
2023/03/08 07:55:39;;;;;;;20.83;11.75;;;;;;;5.96;80.54;96327.50;4128646;28;20577;-79
2023/03/08 07:57:44;;;;;;;15.85;11.15;;;;;;;5.96;81.15;96322.31;4123125;28;20656;-78
2023/03/08 07:59:47;;;;;;;15.90;10.40;;;;;;;5.92;81.13;96321.72;4121874;28;20696;-79
2023/03/08 08:01:50;;;;;;;18.42;11.55;;;;;;;5.88;81.70;96315.16;4111407;28;20263;-80
2023/03/08 08:03:53;;;;;;;16.35;11.40;;;;;;;5.85;81.84;96311.97;4128977;28;20644;-79
2023/03/08 08:05:56;;;;;;;16.75;11.20;;;;;;;5.83;82.14;96306.94;4137119;28;20504;-80
2023/03/08 08:07:59;;;;;;;18.15;11.82;;;;;;;5.83;82.64;96306.94;4128825;28;20218;-80
2023/03/08 08:10:03;;;;;;;20.50;12.27;;;;;;;5.85;83.15;96302.47;4117263;28;20222;-80
2023/03/08 08:12:07;;;;;;;17.38;12.15;;;;;;;5.87;83.07;96304.94;4120264;28;20211;-80
2023/03/08 08:14:11;;;;;;;19.20;12.15;;;;;;;5.81;84.10;96301.03;4118205;28;20210;-81
2023/03/08 08:16:15;;;;;;;19.05;11.95;;;;;;;5.80;84.32;96294.25;4099960;28;20232;-81
2023/03/08 08:18:19;;;;;;;22.38;12.68;;;;;;;5.78;84.15;96285.78;4126508;28;20236;-80
2023/03/08 08:20:23;;;;;;;22.38;14.70;;;;;;;5.68;84.89;96278.81;4111420;28;20237;-82
2023/03/08 08:22:27;;;;;;;23.10;15.35;;;;;;;5.65;84.80;96279.06;4128780;28;20206;-82
2023/03/08 08:24:31;;;;;;;26.83;15.85;;;;;;;5.60;85.28;96266.50;4123058;28;20218;-81
2023/03/08 08:26:34;;;;;;;24.58;15.00;;;;;;;5.55;86.02;96256.63;4104307;28;20678;-81
2023/03/08 08:28:39;;;;;;;25.17;14.32;;;;;;;5.52;86.13;96256.84;4112671;28;20221;-81
2023/03/08 08:30:43;;;;;;;23.55;15.75;;;;;;;5.47;86.43;96243.47;4126809;28;20213;-81
2023/03/08 08:32:47;;;;;;;22.38;14.15;;;;;;;5.44;86.88;96241.97;4139607;28;20203;-81
2023/03/08 08:34:50;;;;;;;23.15;15.90;;;;;;;5.46;87.31;96234.91;4143252;28;20209;-81
2023/03/08 08:36:53;;;;;;;22.40;16.08;;;;;;;5.47;87.64;96226.19;4127560;28;20244;-81
2023/03/08 08:38:56;;;;;;;22.63;15.85;;;;;;;5.44;88.51;96226.47;4139540;28;20660;-82
2023/03/08 08:41:00;;;;;;;24.30;14.68;;;;;;;5.39;88.28;96218.22;4129293;28;20221;-81
2023/03/08 08:43:03;;;;;;;24.17;16.00;;;;;;;5.37;88.28;96217.53;4129257;28;20211;-82
2023/03/08 08:45:07;;;;;;;23.58;14.75;;;;;;;5.30;88.78;96211.19;4104770;28;20209;-81
2023/03/08 08:47:11;;;;;;;27.45;16.27;;;;;;;5.25;89.08;96200.41;4128478;28;20208;-82
2023/03/08 08:49:14;;;;;;;31.17;18.67;;;;;;;5.16;89.79;96190.78;4109886;28;20223;-82
2023/03/08 08:51:18;;;;;;;23.42;15.05;;;;;;;5.16;89.65;96182.22;4124227;28;20220;-82
2023/03/08 08:53:21;;;;;;;23.52;15.18;;;;;;;5.15;91.08;96171.06;4149469;28;20232;-81
2023/03/08 08:55:24;;;;;;;22.45;14.60;;;;;;;5.15;91.56;96170.25;4130903;28;20696;-81
2023/03/08 08:57:28;;;;;;;21.83;13.35;;;;;;;5.15;90.97;96160.72;4121246;28;20743;-81
2023/03/08 08:59:31;;;;;;;21.35;14.50;;;;;;;5.11;91.21;96160.25;4140684;28;20242;-81
2023/03/08 09:01:35;;;;;;;22.13;14.80;;;;;;;5.13;90.28;96172.13;4125851;28;20209;-81
2023/03/08 09:03:40;;;;;;;22.70;14.07;;;;;;;5.13;90.77;96161.78;4111080;28;20230;-79
2023/03/08 09:05:44;;;;;;;23.20;13.95;;;;;;;5.18;91.31;96144.97;4104699;28;20552;-79
2023/03/08 09:07:48;;;;;;;20.58;13.82;;;;;;;5.24;91.60;96156.59;4126632;28;20304;-79
2023/03/08 09:09:54;;;;;;;20.55;13.02;;;;;;;5.29;91.53;96157.91;4115788;28;20618;-79
2023/03/08 09:11:57;;;;;;;24.13;14.80;;;;;;;5.29;90.45;96165.66;4115635;28;20204;-79
2023/03/08 09:14:02;;;;;;;20.40;13.90;;;;;;;5.33;91.06;96148.13;4116528;28;20268;-79
2023/03/08 09:16:06;;;;;;;22.55;15.10;;;;;;;5.38;91.12;96146.84;4131109;28;20220;-79
2023/03/08 09:18:09;;;;;;;21.73;14.55;;;;;;;5.45;91.18;96142.81;4126623;28;20213;-79
2023/03/08 09:20:14;;;;;;;23.60;14.90;;;;;;;5.46;92.38;96159.13;4115945;28;20229;-79
2023/03/08 09:22:17;;;;;;;21.90;15.10;;;;;;;5.52;91.50;96153.47;4123575;28;20205;-79
2023/03/08 09:24:20;;;;;;;23.38;14.68;;;;;;;5.57;91.51;96154.75;4117340;28;20210;-79
2023/03/08 09:26:24;;;;;;;23.38;14.40;;;;;;;5.64;92.19;96148.16;4103245;28;20220;-79
2023/03/08 09:28:27;;;;;;;23.75;14.82;;;;;;;5.73;91.97;96139.69;4118580;28;20209;-79
2023/03/08 09:30:31;;;;;;;25.85;14.20;;;;;;;5.80;91.76;96146.00;4119120;28;20204;-79
2023/03/08 09:32:35;;;;;;;24.02;14.43;;;;;;;5.85;91.54;96139.53;4134410;28;20218;-79
2023/03/08 09:34:38;;;;;;;24.40;14.18;;;;;;;5.85;90.26;96136.09;4127281;28;20699;-79
2023/03/08 09:36:43;;;;;;;23.48;15.82;;;;;;;5.87;90.86;96132.47;4127472;28;20266;-79
2023/03/08 09:38:47;;;;;;;24.45;15.98;;;;;;;5.88;90.62;96131.53;4123283;28;20231;-78
2023/03/08 09:40:59;;;;;;;23.17;15.98;;;;;;;5.93;90.87;96115.63;4118350;28;20233;-79
2023/03/08 09:43:05;;;;;;;22.05;14.00;;;;;;;5.95;90.76;96113.72;4127057;28;20245;-79
2023/03/08 09:45:18;;;;;;;21.35;14.90;;;;;;;5.96;91.56;96129.13;4122279;28;20217;-79
2023/03/08 09:47:31;;;;;;;21.08;14.52;;;;;;;6.00;91.66;96119.34;4136432;28;20209;-78
2023/03/08 09:49:36;;;;;;;26.17;17.13;;;;;;;6.00;91.43;96109.00;4114820;28;20728;-78